sensor_id;sensor_type;location;lat;lon;timestamp;temperature;humidity
5621;DHT22;2832;50.864;12.186;2022-12-07T00:01:05;5.50;99.90
5621;DHT22;2832;50.864;12.186;2022-12-07T00:03:36;5.50;99.90
5621;DHT22;2832;50.864;12.186;2022-12-07T00:06:06;5.50;99.90
5621;DHT22;2832;50.864;12.186;2022-12-07T00:08:35;5.50;99.90
5621;DHT22;2832;50.864;12.186;2022-12-07T00:11:04;5.50;99.90
5621;DHT22;2832;50.864;12.186;2022-12-07T00:13:35;5.40;99.90
5621;DHT22;2832;50.864;12.186;2022-12-07T00:16:05;5.40;99.90
5621;DHT22;2832;50.864;12.186;2022-12-07T00:18:33;5.30;99.90
5621;DHT22;2832;50.864;12.186;2022-12-07T00:21:03;5.30;99.90
5621;DHT22;2832;50.864;12.186;2022-12-07T00:23:32;5.30;99.90
5621;DHT22;2832;50.864;12.186;2022-12-07T00:26:04;5.30;99.90
5621;DHT22;2832;50.864;12.186;2022-12-07T00:28:34;5.40;99.90
5621;DHT22;2832;50.864;12.186;2022-12-07T00:31:03;5.30;99.90
5621;DHT22;2832;50.864;12.186;2022-12-07T00:33:32;5.30;99.90
5621;DHT22;2832;50.864;12.186;2022-12-07T00:36:01;5.20;99.90
5621;DHT22;2832;50.864;12.186;2022-12-07T00:38:33;5.30;99.90
5621;DHT22;2832;50.864;12.186;2022-12-07T00:41:03;5.20;99.90
5621;DHT22;2832;50.864;12.186;2022-12-07T00:43:34;5.20;99.90
5621;DHT22;2832;50.864;12.186;2022-12-07T00:46:02;5.20;99.90
5621;DHT22;2832;50.864;12.186;2022-12-07T00:48:33;5.20;99.90
5621;DHT22;2832;50.864;12.186;2022-12-07T00:51:02;5.20;99.90
5621;DHT22;2832;50.864;12.186;2022-12-07T00:53:30;5.20;99.90
5621;DHT22;2832;50.864;12.186;2022-12-07T00:56:05;5.20;99.90
5621;DHT22;2832;50.864;12.186;2022-12-07T00:58:35;5.20;99.90
5621;DHT22;2832;50.864;12.186;2022-12-07T01:01:05;5.20;99.90
5621;DHT22;2832;50.864;12.186;2022-12-07T01:03:33;5.20;99.90
5621;DHT22;2832;50.864;12.186;2022-12-07T01:06:03;5.20;99.90
5621;DHT22;2832;50.864;12.186;2022-12-07T01:08:31;5.20;99.90
5621;DHT22;2832;50.864;12.186;2022-12-07T01:11:00;5.20;99.90
5621;DHT22;2832;50.864;12.186;2022-12-07T01:13:29;5.20;99.90
5621;DHT22;2832;50.864;12.186;2022-12-07T01:16:01;5.20;99.90
5621;DHT22;2832;50.864;12.186;2022-12-07T01:18:30;5.20;99.90
5621;DHT22;2832;50.864;12.186;2022-12-07T01:21:01;5.20;99.90
5621;DHT22;2832;50.864;12.186;2022-12-07T01:23:30;5.30;99.90
5621;DHT22;2832;50.864;12.186;2022-12-07T01:25:58;5.30;99.90
5621;DHT22;2832;50.864;12.186;2022-12-07T01:28:27;5.30;99.90
5621;DHT22;2832;50.864;12.186;2022-12-07T01:30:58;5.40;99.90
5621;DHT22;2832;50.864;12.186;2022-12-07T01:33:27;5.40;99.90
5621;DHT22;2832;50.864;12.186;2022-12-07T01:36:01;5.30;99.90
5621;DHT22;2832;50.864;12.186;2022-12-07T01:38:30;5.30;99.90
5621;DHT22;2832;50.864;12.186;2022-12-07T01:40:59;5.20;99.90
5621;DHT22;2832;50.864;12.186;2022-12-07T01:43:29;5.20;99.90
5621;DHT22;2832;50.864;12.186;2022-12-07T01:46:01;5.20;99.90
5621;DHT22;2832;50.864;12.186;2022-12-07T01:48:33;5.10;99.90
5621;DHT22;2832;50.864;12.186;2022-12-07T01:51:06;5.10;99.90
5621;DHT22;2832;50.864;12.186;2022-12-07T01:53:40;5.00;99.90
5621;DHT22;2832;50.864;12.186;2022-12-07T01:56:12;5.00;99.90
5621;DHT22;2832;50.864;12.186;2022-12-07T01:58:42;5.10;99.90
5621;DHT22;2832;50.864;12.186;2022-12-07T02:01:12;5.20;99.90
5621;DHT22;2832;50.864;12.186;2022-12-07T02:03:42;5.20;99.90
5621;DHT22;2832;50.864;12.186;2022-12-07T02:06:13;5.20;99.90
5621;DHT22;2832;50.864;12.186;2022-12-07T02:08:43;5.10;99.90
5621;DHT22;2832;50.864;12.186;2022-12-07T02:11:12;5.00;99.90
5621;DHT22;2832;50.864;12.186;2022-12-07T02:13:42;5.00;99.90
5621;DHT22;2832;50.864;12.186;2022-12-07T02:16:24;5.00;99.90
5621;DHT22;2832;50.864;12.186;2022-12-07T02:19:03;5.00;99.90
5621;DHT22;2832;50.864;12.186;2022-12-07T02:21:38;5.00;99.90
5621;DHT22;2832;50.864;12.186;2022-12-07T02:24:28;5.00;99.90
5621;DHT22;2832;50.864;12.186;2022-12-07T02:27:16;4.90;99.90
5621;DHT22;2832;50.864;12.186;2022-12-07T02:29:55;4.90;99.90
5621;DHT22;2832;50.864;12.186;2022-12-07T02:32:27;4.90;99.90
5621;DHT22;2832;50.864;12.186;2022-12-07T02:35:04;4.90;99.90
5621;DHT22;2832;50.864;12.186;2022-12-07T02:37:38;4.90;99.90
5621;DHT22;2832;50.864;12.186;2022-12-07T02:40:13;4.90;99.90
5621;DHT22;2832;50.864;12.186;2022-12-07T02:42:49;4.80;99.90
5621;DHT22;2832;50.864;12.186;2022-12-07T02:45:22;4.80;99.90
5621;DHT22;2832;50.864;12.186;2022-12-07T02:47:53;4.80;99.90
5621;DHT22;2832;50.864;12.186;2022-12-07T02:50:22;4.80;99.90
5621;DHT22;2832;50.864;12.186;2022-12-07T02:52:52;4.70;99.90
5621;DHT22;2832;50.864;12.186;2022-12-07T02:55:23;4.70;99.90
5621;DHT22;2832;50.864;12.186;2022-12-07T02:58:11;4.80;99.90
5621;DHT22;2832;50.864;12.186;2022-12-07T03:00:51;4.70;99.90
5621;DHT22;2832;50.864;12.186;2022-12-07T03:03:19;4.70;99.90
5621;DHT22;2832;50.864;12.186;2022-12-07T03:06:05;4.70;99.90
5621;DHT22;2832;50.864;12.186;2022-12-07T03:08:48;4.80;99.90
5621;DHT22;2832;50.864;12.186;2022-12-07T03:11:22;4.80;99.90
5621;DHT22;2832;50.864;12.186;2022-12-07T03:13:58;4.80;99.90
5621;DHT22;2832;50.864;12.186;2022-12-07T03:16:31;4.80;99.90
5621;DHT22;2832;50.864;12.186;2022-12-07T03:19:04;4.80;99.90
5621;DHT22;2832;50.864;12.186;2022-12-07T03:21:38;4.80;99.90
5621;DHT22;2832;50.864;12.186;2022-12-07T03:24:09;4.80;99.90
5621;DHT22;2832;50.864;12.186;2022-12-07T03:26:42;4.70;99.90
5621;DHT22;2832;50.864;12.186;2022-12-07T03:29:16;4.70;99.90
5621;DHT22;2832;50.864;12.186;2022-12-07T03:31:50;4.70;99.90
5621;DHT22;2832;50.864;12.186;2022-12-07T03:34:24;4.70;99.90
5621;DHT22;2832;50.864;12.186;2022-12-07T03:36:57;4.70;99.90
5621;DHT22;2832;50.864;12.186;2022-12-07T03:39:29;4.70;99.90
5621;DHT22;2832;50.864;12.186;2022-12-07T03:42:00;4.70;99.90
5621;DHT22;2832;50.864;12.186;2022-12-07T03:44:31;4.70;99.90
5621;DHT22;2832;50.864;12.186;2022-12-07T03:47:03;4.70;99.90
5621;DHT22;2832;50.864;12.186;2022-12-07T03:49:39;4.70;99.90
5621;DHT22;2832;50.864;12.186;2022-12-07T03:52:12;4.70;99.90
5621;DHT22;2832;50.864;12.186;2022-12-07T03:54:48;4.70;99.90
5621;DHT22;2832;50.864;12.186;2022-12-07T03:57:17;4.70;99.90
5621;DHT22;2832;50.864;12.186;2022-12-07T03:59:46;4.70;99.90
5621;DHT22;2832;50.864;12.186;2022-12-07T04:02:16;4.70;99.90
5621;DHT22;2832;50.864;12.186;2022-12-07T04:04:44;4.70;99.90
5621;DHT22;2832;50.864;12.186;2022-12-07T04:07:12;4.80;99.90
5621;DHT22;2832;50.864;12.186;2022-12-07T04:09:40;4.80;99.90
5621;DHT22;2832;50.864;12.186;2022-12-07T04:12:08;4.80;99.90
5621;DHT22;2832;50.864;12.186;2022-12-07T04:14:36;4.80;99.90
5621;DHT22;2832;50.864;12.186;2022-12-07T04:17:03;4.80;99.90
5621;DHT22;2832;50.864;12.186;2022-12-07T04:19:33;4.80;99.90
5621;DHT22;2832;50.864;12.186;2022-12-07T04:22:03;4.80;99.90
5621;DHT22;2832;50.864;12.186;2022-12-07T04:24:31;4.80;99.90
5621;DHT22;2832;50.864;12.186;2022-12-07T04:27:00;5.00;99.90
5621;DHT22;2832;50.864;12.186;2022-12-07T04:29:28;5.00;99.90
5621;DHT22;2832;50.864;12.186;2022-12-07T04:31:56;5.10;99.90
5621;DHT22;2832;50.864;12.186;2022-12-07T04:34:24;5.10;99.90
5621;DHT22;2832;50.864;12.186;2022-12-07T04:36:54;5.20;99.90
5621;DHT22;2832;50.864;12.186;2022-12-07T04:39:23;5.20;99.90
5621;DHT22;2832;50.864;12.186;2022-12-07T04:41:51;5.20;99.90
5621;DHT22;2832;50.864;12.186;2022-12-07T04:44:20;5.30;99.90
5621;DHT22;2832;50.864;12.186;2022-12-07T04:46:48;5.30;99.90
5621;DHT22;2832;50.864;12.186;2022-12-07T04:49:17;5.40;99.90
5621;DHT22;2832;50.864;12.186;2022-12-07T04:51:45;5.40;99.90
5621;DHT22;2832;50.864;12.186;2022-12-07T04:54:15;5.40;99.90
5621;DHT22;2832;50.864;12.186;2022-12-07T04:56:44;5.40;99.90
5621;DHT22;2832;50.864;12.186;2022-12-07T04:59:12;5.40;99.90
5621;DHT22;2832;50.864;12.186;2022-12-07T05:01:41;5.30;99.90
5621;DHT22;2832;50.864;12.186;2022-12-07T05:04:12;5.40;99.90
5621;DHT22;2832;50.864;12.186;2022-12-07T05:06:39;5.30;99.90
5621;DHT22;2832;50.864;12.186;2022-12-07T05:09:08;5.40;99.90
5621;DHT22;2832;50.864;12.186;2022-12-07T05:11:37;5.40;99.90
5621;DHT22;2832;50.864;12.186;2022-12-07T05:14:12;5.40;99.90
5621;DHT22;2832;50.864;12.186;2022-12-07T05:16:42;5.40;99.90
5621;DHT22;2832;50.864;12.186;2022-12-07T05:19:10;5.40;99.90
5621;DHT22;2832;50.864;12.186;2022-12-07T05:21:39;5.40;99.90
5621;DHT22;2832;50.864;12.186;2022-12-07T05:24:10;5.50;99.90
5621;DHT22;2832;50.864;12.186;2022-12-07T05:26:39;5.60;99.90
5621;DHT22;2832;50.864;12.186;2022-12-07T05:29:11;5.50;99.90
5621;DHT22;2832;50.864;12.186;2022-12-07T05:31:39;5.50;99.90
5621;DHT22;2832;50.864;12.186;2022-12-07T05:34:07;5.40;99.90
5621;DHT22;2832;50.864;12.186;2022-12-07T05:36:35;5.40;99.90
5621;DHT22;2832;50.864;12.186;2022-12-07T05:39:03;5.30;99.90
5621;DHT22;2832;50.864;12.186;2022-12-07T05:41:31;5.30;99.90
5621;DHT22;2832;50.864;12.186;2022-12-07T05:44:32;5.20;99.90
5621;DHT22;2832;50.864;12.186;2022-12-07T05:47:00;5.20;99.90
5621;DHT22;2832;50.864;12.186;2022-12-07T05:49:29;5.20;99.90
5621;DHT22;2832;50.864;12.186;2022-12-07T05:51:58;5.20;99.90
5621;DHT22;2832;50.864;12.186;2022-12-07T05:54:26;5.20;99.90
5621;DHT22;2832;50.864;12.186;2022-12-07T05:56:54;5.30;99.90
5621;DHT22;2832;50.864;12.186;2022-12-07T05:59:23;5.20;99.90
5621;DHT22;2832;50.864;12.186;2022-12-07T06:01:53;5.20;99.90
5621;DHT22;2832;50.864;12.186;2022-12-07T06:04:21;5.30;99.90
5621;DHT22;2832;50.864;12.186;2022-12-07T06:06:50;5.20;99.90
5621;DHT22;2832;50.864;12.186;2022-12-07T06:09:18;5.20;99.90
5621;DHT22;2832;50.864;12.186;2022-12-07T06:11:46;5.20;99.90
5621;DHT22;2832;50.864;12.186;2022-12-07T06:14:31;5.20;99.90
5621;DHT22;2832;50.864;12.186;2022-12-07T06:17:03;5.20;99.90
5621;DHT22;2832;50.864;12.186;2022-12-07T06:19:33;5.20;99.90
5621;DHT22;2832;50.864;12.186;2022-12-07T06:22:02;5.20;99.90
5621;DHT22;2832;50.864;12.186;2022-12-07T06:24:30;5.20;99.90
5621;DHT22;2832;50.864;12.186;2022-12-07T06:26:59;5.20;99.90
5621;DHT22;2832;50.864;12.186;2022-12-07T06:29:27;5.20;99.90
5621;DHT22;2832;50.864;12.186;2022-12-07T06:31:56;5.20;99.90
5621;DHT22;2832;50.864;12.186;2022-12-07T06:34:30;5.20;99.90
5621;DHT22;2832;50.864;12.186;2022-12-07T06:36:58;5.20;99.90
5621;DHT22;2832;50.864;12.186;2022-12-07T06:39:28;5.20;99.90
5621;DHT22;2832;50.864;12.186;2022-12-07T06:41:57;5.20;99.90
5621;DHT22;2832;50.864;12.186;2022-12-07T06:44:27;5.20;99.90
5621;DHT22;2832;50.864;12.186;2022-12-07T06:46:57;5.20;99.90
5621;DHT22;2832;50.864;12.186;2022-12-07T06:49:25;5.20;99.90
5621;DHT22;2832;50.864;12.186;2022-12-07T06:51:55;5.20;99.90
5621;DHT22;2832;50.864;12.186;2022-12-07T06:54:23;5.20;99.90
5621;DHT22;2832;50.864;12.186;2022-12-07T06:56:50;5.20;99.90
5621;DHT22;2832;50.864;12.186;2022-12-07T06:59:19;5.30;99.90
5621;DHT22;2832;50.864;12.186;2022-12-07T07:01:46;5.30;99.90
5621;DHT22;2832;50.864;12.186;2022-12-07T07:04:14;5.30;99.90
5621;DHT22;2832;50.864;12.186;2022-12-07T07:06:42;5.20;99.90
5621;DHT22;2832;50.864;12.186;2022-12-07T07:09:11;5.30;99.90
5621;DHT22;2832;50.864;12.186;2022-12-07T07:11:39;5.20;99.90
5621;DHT22;2832;50.864;12.186;2022-12-07T07:14:07;5.20;99.90
5621;DHT22;2832;50.864;12.186;2022-12-07T07:16:35;5.20;99.90
5621;DHT22;2832;50.864;12.186;2022-12-07T07:19:04;5.30;99.90
5621;DHT22;2832;50.864;12.186;2022-12-07T07:21:32;5.20;99.90
5621;DHT22;2832;50.864;12.186;2022-12-07T07:24:00;5.30;99.90
5621;DHT22;2832;50.864;12.186;2022-12-07T07:26:29;5.30;99.90
5621;DHT22;2832;50.864;12.186;2022-12-07T07:28:58;5.20;99.90
5621;DHT22;2832;50.864;12.186;2022-12-07T07:31:25;5.20;99.90
5621;DHT22;2832;50.864;12.186;2022-12-07T07:33:53;5.20;99.90
5621;DHT22;2832;50.864;12.186;2022-12-07T07:36:21;5.30;99.90
5621;DHT22;2832;50.864;12.186;2022-12-07T07:38:49;5.40;99.90
5621;DHT22;2832;50.864;12.186;2022-12-07T07:41:17;5.60;99.90
5621;DHT22;2832;50.864;12.186;2022-12-07T07:43:47;5.80;99.90
5621;DHT22;2832;50.864;12.186;2022-12-07T07:46:15;5.90;99.90
5621;DHT22;2832;50.864;12.186;2022-12-07T07:48:43;6.00;99.90
5621;DHT22;2832;50.864;12.186;2022-12-07T07:51:12;6.00;99.90
5621;DHT22;2832;50.864;12.186;2022-12-07T07:53:41;6.00;99.90
5621;DHT22;2832;50.864;12.186;2022-12-07T07:56:08;5.90;99.90
5621;DHT22;2832;50.864;12.186;2022-12-07T07:58:36;5.80;99.90
5621;DHT22;2832;50.864;12.186;2022-12-07T08:01:07;5.90;99.90
5621;DHT22;2832;50.864;12.186;2022-12-07T08:03:36;6.10;99.90
5621;DHT22;2832;50.864;12.186;2022-12-07T08:06:06;6.20;99.90
5621;DHT22;2832;50.864;12.186;2022-12-07T08:08:34;6.40;99.90
5621;DHT22;2832;50.864;12.186;2022-12-07T08:11:05;6.50;99.90
5621;DHT22;2832;50.864;12.186;2022-12-07T08:13:33;6.70;99.90
5621;DHT22;2832;50.864;12.186;2022-12-07T08:16:04;6.90;99.90
5621;DHT22;2832;50.864;12.186;2022-12-07T08:18:37;7.10;99.90
5621;DHT22;2832;50.864;12.186;2022-12-07T08:21:06;7.20;99.90
5621;DHT22;2832;50.864;12.186;2022-12-07T08:23:35;7.20;99.90
5621;DHT22;2832;50.864;12.186;2022-12-07T08:26:05;7.40;99.90
5621;DHT22;2832;50.864;12.186;2022-12-07T08:28:33;7.50;99.90
5621;DHT22;2832;50.864;12.186;2022-12-07T08:31:01;7.60;99.90
5621;DHT22;2832;50.864;12.186;2022-12-07T08:33:29;7.60;99.90
5621;DHT22;2832;50.864;12.186;2022-12-07T08:36:03;7.70;99.90
5621;DHT22;2832;50.864;12.186;2022-12-07T08:38:31;7.80;99.90
5621;DHT22;2832;50.864;12.186;2022-12-07T08:40:59;7.80;99.90
5621;DHT22;2832;50.864;12.186;2022-12-07T08:43:31;7.80;99.90
5621;DHT22;2832;50.864;12.186;2022-12-07T08:46:06;7.90;99.90
5621;DHT22;2832;50.864;12.186;2022-12-07T08:48:38;7.90;99.90
5621;DHT22;2832;50.864;12.186;2022-12-07T08:51:10;7.90;99.90
5621;DHT22;2832;50.864;12.186;2022-12-07T08:53:40;8.00;99.90
5621;DHT22;2832;50.864;12.186;2022-12-07T08:56:09;8.00;99.90
5621;DHT22;2832;50.864;12.186;2022-12-07T08:58:38;8.00;99.90
5621;DHT22;2832;50.864;12.186;2022-12-07T09:01:07;8.00;99.90
5621;DHT22;2832;50.864;12.186;2022-12-07T09:03:34;8.20;99.90
5621;DHT22;2832;50.864;12.186;2022-12-07T09:06:03;8.30;99.90
5621;DHT22;2832;50.864;12.186;2022-12-07T09:08:37;8.20;99.90
5621;DHT22;2832;50.864;12.186;2022-12-07T09:11:10;8.10;99.90
5621;DHT22;2832;50.864;12.186;2022-12-07T09:13:37;8.10;99.90
5621;DHT22;2832;50.864;12.186;2022-12-07T09:16:06;8.00;99.90
5621;DHT22;2832;50.864;12.186;2022-12-07T09:18:34;8.00;99.90
5621;DHT22;2832;50.864;12.186;2022-12-07T09:21:01;8.00;99.90
5621;DHT22;2832;50.864;12.186;2022-12-07T09:23:31;8.00;99.90
5621;DHT22;2832;50.864;12.186;2022-12-07T09:26:00;8.10;99.90
5621;DHT22;2832;50.864;12.186;2022-12-07T09:28:27;8.00;99.90
5621;DHT22;2832;50.864;12.186;2022-12-07T09:30:56;8.00;99.90
5621;DHT22;2832;50.864;12.186;2022-12-07T09:33:24;8.10;99.90
5621;DHT22;2832;50.864;12.186;2022-12-07T09:35:52;8.00;99.90
5621;DHT22;2832;50.864;12.186;2022-12-07T09:38:20;8.00;99.90
5621;DHT22;2832;50.864;12.186;2022-12-07T09:40:51;7.90;99.90
5621;DHT22;2832;50.864;12.186;2022-12-07T09:43:21;7.80;99.90
5621;DHT22;2832;50.864;12.186;2022-12-07T09:45:53;7.80;99.90
5621;DHT22;2832;50.864;12.186;2022-12-07T09:48:22;7.80;99.90
5621;DHT22;2832;50.864;12.186;2022-12-07T09:50:54;7.90;99.90
5621;DHT22;2832;50.864;12.186;2022-12-07T09:53:29;7.90;99.90
5621;DHT22;2832;50.864;12.186;2022-12-07T09:55:59;7.80;99.90
5621;DHT22;2832;50.864;12.186;2022-12-07T09:58:29;7.80;99.90
5621;DHT22;2832;50.864;12.186;2022-12-07T10:01:00;7.90;99.90
5621;DHT22;2832;50.864;12.186;2022-12-07T10:03:28;7.90;99.90
5621;DHT22;2832;50.864;12.186;2022-12-07T10:05:59;7.90;99.90
5621;DHT22;2832;50.864;12.186;2022-12-07T10:08:27;7.90;99.90
5621;DHT22;2832;50.864;12.186;2022-12-07T10:10:56;8.00;99.90
5621;DHT22;2832;50.864;12.186;2022-12-07T10:13:37;8.00;99.90
5621;DHT22;2832;50.864;12.186;2022-12-07T10:16:09;8.00;99.90
5621;DHT22;2832;50.864;12.186;2022-12-07T10:18:49;8.00;99.90
5621;DHT22;2832;50.864;12.186;2022-12-07T10:21:23;8.00;99.90
5621;DHT22;2832;50.864;12.186;2022-12-07T10:24:02;8.00;99.90
5621;DHT22;2832;50.864;12.186;2022-12-07T10:26:33;8.00;99.90
5621;DHT22;2832;50.864;12.186;2022-12-07T10:29:12;8.00;99.90
5621;DHT22;2832;50.864;12.186;2022-12-07T10:31:42;8.10;99.90
5621;DHT22;2832;50.864;12.186;2022-12-07T10:34:22;8.10;99.90
5621;DHT22;2832;50.864;12.186;2022-12-07T10:36:53;8.10;99.90
5621;DHT22;2832;50.864;12.186;2022-12-07T10:39:23;8.10;99.90
5621;DHT22;2832;50.864;12.186;2022-12-07T10:41:56;8.10;99.90
5621;DHT22;2832;50.864;12.186;2022-12-07T10:44:27;8.10;99.90
5621;DHT22;2832;50.864;12.186;2022-12-07T10:50:24;8.00;99.90
5621;DHT22;2832;50.864;12.186;2022-12-07T10:53:20;8.00;99.90
5621;DHT22;2832;50.864;12.186;2022-12-07T10:56:29;8.10;99.90
5621;DHT22;2832;50.864;12.186;2022-12-07T10:59:12;8.20;99.90
5621;DHT22;2832;50.864;12.186;2022-12-07T11:01:54;8.30;99.90
5621;DHT22;2832;50.864;12.186;2022-12-07T11:04:29;8.40;99.90
5621;DHT22;2832;50.864;12.186;2022-12-07T11:07:10;8.40;99.90
5621;DHT22;2832;50.864;12.186;2022-12-07T11:10:01;8.50;99.90
5621;DHT22;2832;50.864;12.186;2022-12-07T11:12:58;8.60;99.90
5621;DHT22;2832;50.864;12.186;2022-12-07T11:15:42;8.60;99.90
5621;DHT22;2832;50.864;12.186;2022-12-07T11:18:24;8.60;99.90
5621;DHT22;2832;50.864;12.186;2022-12-07T11:21:03;8.70;99.90
5621;DHT22;2832;50.864;12.186;2022-12-07T11:23:44;8.70;99.90
5621;DHT22;2832;50.864;12.186;2022-12-07T11:26:19;8.80;99.90
5621;DHT22;2832;50.864;12.186;2022-12-07T11:29:02;8.80;99.90
5621;DHT22;2832;50.864;12.186;2022-12-07T11:31:38;8.80;99.90
5621;DHT22;2832;50.864;12.186;2022-12-07T11:34:18;8.90;99.90
5621;DHT22;2832;50.864;12.186;2022-12-07T11:36:51;8.90;99.90
5621;DHT22;2832;50.864;12.186;2022-12-07T11:39:26;9.00;99.90
5621;DHT22;2832;50.864;12.186;2022-12-07T11:42:02;9.00;99.90
5621;DHT22;2832;50.864;12.186;2022-12-07T11:44:36;9.10;99.90
5621;DHT22;2832;50.864;12.186;2022-12-07T11:47:13;9.00;99.90
5621;DHT22;2832;50.864;12.186;2022-12-07T11:49:51;9.10;99.90
5621;DHT22;2832;50.864;12.186;2022-12-07T11:52:26;9.20;99.90
5621;DHT22;2832;50.864;12.186;2022-12-07T11:54:55;9.20;99.90
5621;DHT22;2832;50.864;12.186;2022-12-07T11:57:28;9.20;99.90
5621;DHT22;2832;50.864;12.186;2022-12-07T12:00:03;9.20;99.90
5621;DHT22;2832;50.864;12.186;2022-12-07T12:02:36;9.30;99.90
5621;DHT22;2832;50.864;12.186;2022-12-07T12:05:16;9.40;99.90
5621;DHT22;2832;50.864;12.186;2022-12-07T12:07:50;9.40;99.90
5621;DHT22;2832;50.864;12.186;2022-12-07T12:10:24;9.50;99.90
5621;DHT22;2832;50.864;12.186;2022-12-07T12:13:13;9.60;99.90
5621;DHT22;2832;50.864;12.186;2022-12-07T12:15:58;9.50;99.90
5621;DHT22;2832;50.864;12.186;2022-12-07T12:18:55;9.60;99.90
5621;DHT22;2832;50.864;12.186;2022-12-07T12:21:29;9.60;99.90
5621;DHT22;2832;50.864;12.186;2022-12-07T12:24:02;9.60;99.90
5621;DHT22;2832;50.864;12.186;2022-12-07T12:26:34;9.70;99.90
5621;DHT22;2832;50.864;12.186;2022-12-07T12:29:06;9.70;99.90
5621;DHT22;2832;50.864;12.186;2022-12-07T12:31:37;9.70;99.90
5621;DHT22;2832;50.864;12.186;2022-12-07T12:34:30;9.70;99.90
5621;DHT22;2832;50.864;12.186;2022-12-07T12:36:59;9.70;99.90
5621;DHT22;2832;50.864;12.186;2022-12-07T12:39:27;9.50;99.90
5621;DHT22;2832;50.864;12.186;2022-12-07T12:42:00;9.40;99.90
5621;DHT22;2832;50.864;12.186;2022-12-07T12:44:41;9.30;99.90
5621;DHT22;2832;50.864;12.186;2022-12-07T12:47:43;9.10;99.90
5621;DHT22;2832;50.864;12.186;2022-12-07T12:50:22;9.00;99.90
5621;DHT22;2832;50.864;12.186;2022-12-07T12:53:01;9.00;99.90
5621;DHT22;2832;50.864;12.186;2022-12-07T12:56:08;8.80;99.90
5621;DHT22;2832;50.864;12.186;2022-12-07T12:58:44;8.80;99.90
5621;DHT22;2832;50.864;12.186;2022-12-07T13:01:46;8.80;99.90
5621;DHT22;2832;50.864;12.186;2022-12-07T13:04:48;8.80;99.90
5621;DHT22;2832;50.864;12.186;2022-12-07T13:07:54;8.70;99.90
5621;DHT22;2832;50.864;12.186;2022-12-07T13:10:32;8.70;99.90
5621;DHT22;2832;50.864;12.186;2022-12-07T13:13:02;8.60;99.90
5621;DHT22;2832;50.864;12.186;2022-12-07T13:15:36;8.60;99.90
5621;DHT22;2832;50.864;12.186;2022-12-07T13:18:22;8.60;99.90
5621;DHT22;2832;50.864;12.186;2022-12-07T13:20:56;8.60;99.90
5621;DHT22;2832;50.864;12.186;2022-12-07T13:23:32;8.60;99.90
5621;DHT22;2832;50.864;12.186;2022-12-07T13:26:14;8.60;99.90
5621;DHT22;2832;50.864;12.186;2022-12-07T13:28:44;8.60;99.90
5621;DHT22;2832;50.864;12.186;2022-12-07T13:31:33;8.60;99.90
5621;DHT22;2832;50.864;12.186;2022-12-07T13:34:02;8.60;99.90
5621;DHT22;2832;50.864;12.186;2022-12-07T13:36:33;8.70;99.90
5621;DHT22;2832;50.864;12.186;2022-12-07T13:39:18;8.60;99.90
5621;DHT22;2832;50.864;12.186;2022-12-07T13:41:51;8.60;99.90
5621;DHT22;2832;50.864;12.186;2022-12-07T13:44:20;8.50;99.90
5621;DHT22;2832;50.864;12.186;2022-12-07T13:46:57;8.50;99.90
5621;DHT22;2832;50.864;12.186;2022-12-07T13:49:29;8.60;99.90
5621;DHT22;2832;50.864;12.186;2022-12-07T13:52:14;8.60;99.90
5621;DHT22;2832;50.864;12.186;2022-12-07T13:54:47;8.60;99.90
5621;DHT22;2832;50.864;12.186;2022-12-07T13:57:17;8.70;99.90
5621;DHT22;2832;50.864;12.186;2022-12-07T13:59:45;8.70;99.90
5621;DHT22;2832;50.864;12.186;2022-12-07T14:02:19;8.70;99.90
5621;DHT22;2832;50.864;12.186;2022-12-07T14:04:51;8.70;99.90
5621;DHT22;2832;50.864;12.186;2022-12-07T14:07:23;8.60;99.90
5621;DHT22;2832;50.864;12.186;2022-12-07T14:09:57;8.70;99.90
5621;DHT22;2832;50.864;12.186;2022-12-07T14:12:26;8.60;99.90
5621;DHT22;2832;50.864;12.186;2022-12-07T14:14:55;8.60;99.90
5621;DHT22;2832;50.864;12.186;2022-12-07T14:17:25;8.60;99.90
5621;DHT22;2832;50.864;12.186;2022-12-07T14:19:54;8.60;99.90
5621;DHT22;2832;50.864;12.186;2022-12-07T14:22:29;8.70;99.90
5621;DHT22;2832;50.864;12.186;2022-12-07T14:25:02;8.70;99.90
5621;DHT22;2832;50.864;12.186;2022-12-07T14:27:38;8.60;99.90
5621;DHT22;2832;50.864;12.186;2022-12-07T14:30:16;8.40;99.90
5621;DHT22;2832;50.864;12.186;2022-12-07T14:32:47;8.30;99.90
5621;DHT22;2832;50.864;12.186;2022-12-07T14:35:18;8.30;99.90
5621;DHT22;2832;50.864;12.186;2022-12-07T14:37:47;8.30;99.90
5621;DHT22;2832;50.864;12.186;2022-12-07T14:40:20;8.30;99.90
5621;DHT22;2832;50.864;12.186;2022-12-07T14:42:52;8.40;99.90
5621;DHT22;2832;50.864;12.186;2022-12-07T14:45:22;8.50;99.90
5621;DHT22;2832;50.864;12.186;2022-12-07T14:47:50;8.50;99.90
5621;DHT22;2832;50.864;12.186;2022-12-07T14:50:20;8.50;99.90
5621;DHT22;2832;50.864;12.186;2022-12-07T14:52:51;8.50;99.90
5621;DHT22;2832;50.864;12.186;2022-12-07T14:55:24;8.40;99.90
5621;DHT22;2832;50.864;12.186;2022-12-07T14:57:53;8.40;99.90
5621;DHT22;2832;50.864;12.186;2022-12-07T15:00:28;8.50;99.90
5621;DHT22;2832;50.864;12.186;2022-12-07T15:02:57;8.50;99.90
5621;DHT22;2832;50.864;12.186;2022-12-07T15:05:25;8.60;99.90
5621;DHT22;2832;50.864;12.186;2022-12-07T15:07:55;8.60;99.90
5621;DHT22;2832;50.864;12.186;2022-12-07T15:10:26;8.60;99.90
5621;DHT22;2832;50.864;12.186;2022-12-07T15:12:57;8.60;99.90
5621;DHT22;2832;50.864;12.186;2022-12-07T15:15:45;8.50;99.90
5621;DHT22;2832;50.864;12.186;2022-12-07T15:18:13;8.50;99.90
5621;DHT22;2832;50.864;12.186;2022-12-07T15:20:43;8.50;99.90
5621;DHT22;2832;50.864;12.186;2022-12-07T15:23:11;8.50;99.90
5621;DHT22;2832;50.864;12.186;2022-12-07T15:25:41;8.50;99.90
5621;DHT22;2832;50.864;12.186;2022-12-07T15:28:10;8.50;99.90
5621;DHT22;2832;50.864;12.186;2022-12-07T15:30:38;8.50;99.90
5621;DHT22;2832;50.864;12.186;2022-12-07T15:33:06;8.50;99.90
5621;DHT22;2832;50.864;12.186;2022-12-07T15:35:39;8.50;99.90
5621;DHT22;2832;50.864;12.186;2022-12-07T15:38:07;8.50;99.90
5621;DHT22;2832;50.864;12.186;2022-12-07T15:40:35;8.50;99.90
5621;DHT22;2832;50.864;12.186;2022-12-07T15:43:07;8.50;99.90
5621;DHT22;2832;50.864;12.186;2022-12-07T15:45:57;8.50;99.90
5621;DHT22;2832;50.864;12.186;2022-12-07T15:48:25;8.40;99.90
5621;DHT22;2832;50.864;12.186;2022-12-07T15:51:02;8.40;99.90
5621;DHT22;2832;50.864;12.186;2022-12-07T15:53:30;8.40;99.90
5621;DHT22;2832;50.864;12.186;2022-12-07T15:55:59;8.40;99.90
5621;DHT22;2832;50.864;12.186;2022-12-07T15:58:28;8.40;99.90
5621;DHT22;2832;50.864;12.186;2022-12-07T16:01:00;8.30;99.90
5621;DHT22;2832;50.864;12.186;2022-12-07T16:03:28;8.30;99.90
5621;DHT22;2832;50.864;12.186;2022-12-07T16:05:56;8.30;99.90
5621;DHT22;2832;50.864;12.186;2022-12-07T16:08:25;8.30;99.90
5621;DHT22;2832;50.864;12.186;2022-12-07T16:10:54;8.30;99.90
5621;DHT22;2832;50.864;12.186;2022-12-07T16:13:22;8.30;99.90
5621;DHT22;2832;50.864;12.186;2022-12-07T16:15:51;8.30;99.90
5621;DHT22;2832;50.864;12.186;2022-12-07T16:18:19;8.30;99.90
5621;DHT22;2832;50.864;12.186;2022-12-07T16:20:48;8.20;99.90
5621;DHT22;2832;50.864;12.186;2022-12-07T16:23:16;8.20;99.90
5621;DHT22;2832;50.864;12.186;2022-12-07T16:25:44;8.30;99.90
5621;DHT22;2832;50.864;12.186;2022-12-07T16:28:11;8.20;99.90
5621;DHT22;2832;50.864;12.186;2022-12-07T16:30:40;8.20;99.90
5621;DHT22;2832;50.864;12.186;2022-12-07T16:33:09;8.20;99.90
5621;DHT22;2832;50.864;12.186;2022-12-07T16:35:38;8.20;99.90
5621;DHT22;2832;50.864;12.186;2022-12-07T16:38:08;8.20;99.90